Kezdőlap
METAR-TAF:

METAR-TAF

Repülőterek :

Koppenhágai repülőtér

Koppenhága, Dánia

földrajzi szélesség: 55-37N, földrajzi hosszúság: 012-39E, magasság: 5 m

Jelenlegi meteorológiai megfigyelések

A jelentés 11 perccel ezelõtt készült, 07:50 UTC
Nyugati szél 7 kt, délnyugati és nyugat-északnyugati között változik
Hőmérséklet 23°C
Páratartalom 61%
Légköri nyomás 1014 hPa
Látótávolság 10 km, vagy több
felhőtlen 1500 m magasságban, és nincs gomolyfelhõ

METAR: EKCH 230750Z 27007KT 230V290 CAVOK 23/15 Q1014 NOSIG

Idő: 10:01 (08:01 UTC)

Előrejelzés

A jelentés 3 órával és 9 perccel ezelõtt készült, 04:52 UTC
Az előrejelzés 23-én 06 óra UTC és 24-én 06 óra UTC között érvényes
Nyugat-északnyugati szél 6 kt
Látótávolság 10 km, vagy több
Szórványos felhőzet 3000 lábon

TAF: EKCH 230452Z 2306/2406 29006KT 9999 SCT030

Meteorológiai megfigyelések és előrejelzések több, mint 4000 repülőtéren (METAR és TAF jelentéseket).

A térképen piros és sárga pontok jelzik az elérhető meteorológiai állomásokat.

Mozgassa az egeret a pont fölött, hogy megjelenjen az állomás neve.

Azután kattintson az időjárási megfigyelések és előrejelzések megtekintéséhez.

A térkép megváltoztatása: kattintson a fekete keresztel jelölt zöld gombra ráközelítéshez, a vonallal jelölt zöld gombra távolításhoz, vagy a zöld nyilakra a szomszédos térképek eléréséhez.


METAR-TAF: